Wind from 300 at 4 knots gusting 12

Air temperature 23.3° C
Dewpoint 9.0° C

Last reported at 2014-Apr-25 05:54 UTC.
Time now 2014-Apr-25 06:22 UTC

Location: S 33°01' E 137°32'.
View on Google Maps.

See reports from other nearby stations

Tides Stations Pressure Air Temp Water Temp Dewpoint Dewpoint depression Visibility Wind Speed Wind Dir Waves Ship positions

  
sailing weather and tide predictions

DW5978 Whyalla SA AU weather

date/time (UTC)wind fromknots sea level pressurealtimeterstation pressurevisibilityair tempwater tempwave heightnotes
2014-Apr-25 05:54 300 4 gusting 12 23.3
2014-Apr-25 05:39 319 6 gusting 13 23.9
2014-Apr-25 05:24 349 7 gusting 14 23.9
2014-Apr-25 05:09 349 9 gusting 16 23.9
2014-Apr-25 04:54 307 6 gusting 16 23.3
2014-Apr-25 04:39 333 6 gusting 14 23.3
2014-Apr-25 04:24 330 8 gusting 15 23.3
2014-Apr-25 04:09 291 9 gusting 19 23.3
2014-Apr-25 03:54 327 7 gusting 17 23.3
2014-Apr-25 03:39 333 8 gusting 14 23.3
2014-Apr-25 03:24 330 13 gusting 19 23.3
2014-Apr-25 03:09 330 11 gusting 19 23.3
2014-Apr-25 02:54 302 10 gusting 18 23.3
2014-Apr-25 02:39 314 8 gusting 16 23.9
2014-Apr-25 02:24 339 7 gusting 13 23.3
2014-Apr-25 02:09 345 11 gusting 16 23.3
2014-Apr-25 01:54 340 9 gusting 14 22.8
2014-Apr-25 01:39 342 7 gusting 14 22.8
2014-Apr-25 01:24 304 3 gusting 12 22.2
2014-Apr-25 01:09 308 5 gusting 9 22.8
2014-Apr-25 00:54 041 2 gusting 7 21.7
2014-Apr-24 23:23 005 2 gusting 6 18.3
2014-Apr-24 22:53 330 0 gusting 2 16.1
2014-Apr-24 22:38 305 0 gusting 3 15.0
2014-Apr-24 22:08 302 11.7
2014-Apr-24 21:53 302 0 gusting 1 11.1
2014-Apr-24 21:38 302 11.1
2014-Apr-24 21:23 302 11.1
2014-Apr-24 21:08 302 10.6
2014-Apr-24 20:53 302 10.6
2014-Apr-24 20:38 302 10.6
2014-Apr-24 20:23 302 0 gusting 0 10.6
2014-Apr-24 20:08 302 11.1
2014-Apr-24 19:53 302 11.7
2014-Apr-24 19:38 302 11.1
2014-Apr-24 19:23 302 10.6
2014-Apr-24 19:08 302 11.1
2014-Apr-24 18:53 302 11.1
2014-Apr-24 18:38 302 11.7
2014-Apr-24 18:23 302 11.7
2014-Apr-24 18:08 302 11.7
2014-Apr-24 17:52 302 0 gusting 1 11.7
2014-Apr-24 17:37 302 0 gusting 1 11.7
2014-Apr-24 17:22 302 11.7
2014-Apr-24 17:07 302 0 gusting 1 11.1
2014-Apr-24 16:52 302 11.1
2014-Apr-24 16:37 302 0 gusting 1 11.1
2014-Apr-24 16:07 302 0 gusting 1 12.2
2014-Apr-24 15:52 302 11.7
2014-Apr-24 15:37 302 0 gusting 1 11.7
2014-Apr-24 15:22 302 11.7
2014-Apr-24 15:07 302 12.2
2014-Apr-24 14:52 302 0 gusting 1 11.7
2014-Apr-24 14:37 139 12.2
2014-Apr-24 14:22 139 13.3
2014-Apr-24 14:07 139 14.4
2014-Apr-24 13:52 139 15.6
2014-Apr-24 13:37 139 15.6
2014-Apr-24 13:22 139 1 gusting 5 16.1
2014-Apr-24 13:07 148 0 gusting 3 16.1
2014-Apr-24 12:52 127 1 gusting 4 16.1
2014-Apr-24 12:37 136 0 gusting 3 16.7
2014-Apr-24 12:22 148 1 gusting 3 16.7
2014-Apr-24 12:07 131 16.7
2014-Apr-24 11:52 168 1 gusting 3 16.7
2014-Apr-24 11:37 102 0 gusting 4 17.2
2014-Apr-24 11:22 145 1 gusting 7 17.2
2014-Apr-24 11:07 127 2 gusting 6 17.2
2014-Apr-24 10:52 145 1 gusting 6 17.2
2014-Apr-24 10:37 148 1 gusting 4 17.2
2014-Apr-24 10:22 181 16.7
2014-Apr-24 10:07 182 17.2
2014-Apr-24 09:52 184 0 gusting 2 17.2
2014-Apr-24 09:37 167 0 gusting 2 17.2
2014-Apr-24 09:22 167 0 gusting 2 17.2
2014-Apr-24 09:07 198 2 gusting 6 17.8
2014-Apr-24 08:52 205 2 gusting 6 17.8
2014-Apr-24 08:37 162 2 gusting 5 17.8
2014-Apr-24 08:22 184 2 gusting 6 18.3
2014-Apr-24 08:07 204 3 gusting 7 18.3
2014-Apr-24 07:52 186 6 gusting 10 18.9
2014-Apr-24 07:37 154 5 gusting 11 19.4
2014-Apr-24 07:22 176 4 gusting 8 19.4
2014-Apr-24 07:07 127 4 gusting 11 20.0
2014-Apr-24 06:52 159 6 gusting 10 20.0
2014-Apr-24 06:37 193 5 gusting 10 20.0
2014-Apr-24 06:22 141 4 gusting 10 20.6
2014-Apr-24 06:07 156 5 gusting 10 20.6
2014-Apr-24 05:52 117 4 gusting 9 20.6
2014-Apr-24 05:37 122 3 gusting 8 21.1
2014-Apr-24 05:22 179 3 gusting 9 21.1
2014-Apr-24 05:07 129 4 gusting 10 21.1
2014-Apr-24 04:52 124 3 gusting 8 20.6
2014-Apr-24 04:37 160 2 gusting 6 20.6
2014-Apr-24 04:21 153 2 gusting 8 20.6
2014-Apr-24 04:06 141 4 gusting 7 20.0
2014-Apr-24 03:51 082 3 gusting 8 20.6
2014-Apr-24 03:36 123 4 gusting 9 20.0
2014-Apr-24 03:21 117 4 gusting 8 20.0
2014-Apr-24 03:06 114 3 gusting 9 20.0
2014-Apr-24 02:51 145 4 gusting 7 20.0
2014-Apr-24 02:36 139 6 gusting 9 20.0
2014-Apr-24 02:21 136 4 gusting 7 20.0
2014-Apr-24 02:06 114 5 gusting 9 20.0
2014-Apr-24 01:51 120 3 gusting 9 19.4
2014-Apr-24 01:36 117 4 gusting 11 19.4
2014-Apr-24 01:21 159 4 gusting 7 19.4
2014-Apr-24 01:06 145 3 gusting 9 19.4
2014-Apr-24 00:51 160 3 gusting 6 18.9
2014-Apr-24 00:36 165 4 gusting 7 18.3
2014-Apr-24 00:21 111 2 gusting 6 18.3
2014-Apr-24 00:06 217 3 gusting 6 17.2
2014-Apr-23 23:51 228 3 gusting 5 16.7
2014-Apr-23 23:36 231 2 gusting 3 16.1
2014-Apr-23 23:21 288 1 gusting 3 15.0
2014-Apr-23 23:06 276 1 gusting 3 14.4
2014-Apr-23 22:51 300 0 gusting 3 13.9
2014-Apr-23 22:36 300 1 gusting 3 13.3
2014-Apr-23 22:21 310 1 gusting 4 12.8
2014-Apr-23 22:05 281 0 gusting 2 11.7
2014-Apr-23 21:50 305 1 gusting 2 11.1
2014-Apr-23 21:35 308 2 gusting 3 10.6
2014-Apr-23 21:20 293 0 gusting 2 10.6
2014-Apr-23 21:05 288 0 gusting 2 10.6
2014-Apr-23 20:50 307 0 gusting 2 10.0
2014-Apr-23 20:35 307 1 gusting 2 10.0
2014-Apr-23 20:20 307 10.0
2014-Apr-23 20:05 307 0 gusting 1 10.0
2014-Apr-23 19:50 307 0 gusting 1 10.6
2014-Apr-23 19:35 307 1 gusting 2 10.6
2014-Apr-23 19:20 307 0 gusting 1 10.6
2014-Apr-23 19:05 308 1 gusting 3 11.1
2014-Apr-23 18:50 296 1 gusting 3 11.1
2014-Apr-23 18:35 300 0 gusting 2 11.1
2014-Apr-23 18:20 304 1 gusting 3 11.1
2014-Apr-23 18:05 327 1 gusting 2 11.1
2014-Apr-23 17:50 289 1 gusting 3 11.1
2014-Apr-23 17:20 315 0 gusting 1 11.1
2014-Apr-23 17:05 314 11.1
2014-Apr-23 16:50 339 11.1
2014-Apr-23 16:35 339 11.1
2014-Apr-23 16:20 294 11.1
2014-Apr-23 16:05 293 11.7
2014-Apr-23 15:50 293 11.1
2014-Apr-23 15:35 291 0 gusting 1 11.1
2014-Apr-23 15:20 291 0 gusting 2 11.1
2014-Apr-23 15:05 311 11.1
2014-Apr-23 14:50 311 10.6
2014-Apr-23 14:35 294 0 gusting 2 10.6
2014-Apr-23 14:20 307 1 gusting 2 10.0
2014-Apr-23 14:05 330 0 gusting 2 10.0
2014-Apr-23 13:50 263 2 gusting 4 11.1
2014-Apr-23 13:35 297 1 gusting 2 11.1
2014-Apr-23 13:20 294 1 gusting 3 11.1
2014-Apr-23 13:05 285 1 gusting 2 11.7
2014-Apr-23 12:50 281 0 gusting 1 11.1
2014-Apr-23 12:35 281 0 gusting 1 11.1
2014-Apr-23 12:20 281 0 gusting 1 10.6
2014-Apr-23 12:05 281 10.0
2014-Apr-23 11:49 281 10.6
2014-Apr-23 11:34 283 10.6
2014-Apr-23 11:19 283 12.2
2014-Apr-23 11:04 283 0 gusting 1 12.2
2014-Apr-23 10:49 282 0 gusting 1 12.2
2014-Apr-23 10:34 282 0 gusting 1 11.1
2014-Apr-23 10:19 238 11.7
2014-Apr-23 10:04 238 0 gusting 1 11.7
2014-Apr-23 09:49 238 12.2
2014-Apr-23 09:34 238 0 gusting 1 12.8
2014-Apr-23 09:19 146 0 gusting 1 14.4
2014-Apr-23 09:04 170 13.9
2014-Apr-23 08:49 170 16.1
2014-Apr-23 08:34 171 17.2
2014-Apr-23 08:19 168 0 gusting 2 17.8
2014-Apr-23 08:04 174 1 gusting 2 18.9
2014-Apr-23 07:49 150 0 gusting 3 18.9
2014-Apr-23 07:34 146 2 gusting 4 19.4
2014-Apr-23 07:19 136 1 gusting 5 19.4
2014-Apr-23 07:04 142 1 gusting 4 20.0
2014-Apr-23 06:49 120 2 gusting 6 20.0
2014-Apr-23 06:34 159 4 gusting 6 20.0
2014-Apr-23 06:19 128 3 gusting 6 20.0
2014-Apr-23 06:04 151 3 gusting 7 20.0